createdAt,value
2023-04-25T00:00:04.221Z,25.89
2023-04-25T00:01:04.659Z,27.19
2023-04-25T00:02:04.297Z,28.06
2023-04-25T00:03:04.269Z,25.57
2023-04-25T00:04:04.390Z,27.01
2023-04-25T00:05:04.347Z,26.85
2023-04-25T00:06:04.616Z,26.83
2023-04-25T00:07:04.205Z,27.80
2023-04-25T00:08:04.152Z,27.16
2023-04-25T00:09:04.164Z,26.74
2023-04-25T00:10:04.142Z,25.80
2023-04-25T00:11:04.120Z,25.46
2023-04-25T00:12:04.096Z,27.04
2023-04-25T00:13:04.088Z,26.42
2023-04-25T00:14:04.110Z,28.56
2023-04-25T00:15:04.085Z,25.29
2023-04-25T00:16:04.254Z,28.31
2023-04-25T00:17:04.064Z,28.71
2023-04-25T00:18:04.127Z,25.86
2023-04-25T00:19:04.061Z,27.80
2023-04-25T00:20:04.069Z,27.03
2023-04-25T00:21:04.159Z,27.70
2023-04-25T00:22:04.054Z,26.54
2023-04-25T00:23:04.052Z,29.21
2023-04-25T00:24:04.071Z,26.44
2023-04-25T00:25:04.007Z,26.68
2023-04-25T00:26:04.142Z,27.76
2023-04-25T00:27:04.038Z,27.67
2023-04-25T00:28:04.029Z,26.03
2023-04-25T00:29:03.978Z,28.45
2023-04-25T00:30:03.991Z,25.20
2023-04-25T00:31:04.185Z,26.71
2023-04-25T00:32:04.148Z,27.23
2023-04-25T00:33:04.664Z,27.94
2023-04-25T00:34:04.008Z,29.03
2023-04-25T00:35:03.969Z,28.88
2023-04-25T00:36:04.146Z,26.60
2023-04-25T00:37:03.968Z,25.00
2023-04-25T00:38:03.962Z,28.13
2023-04-25T00:39:03.972Z,28.96
2023-04-25T00:40:03.969Z,27.39
2023-04-25T00:41:04.157Z,27.61
2023-04-25T00:42:03.955Z,28.10
2023-04-25T00:43:03.932Z,26.43
2023-04-25T00:44:03.931Z,28.13
2023-04-25T00:45:03.893Z,25.96
2023-04-25T00:46:04.172Z,25.29
2023-04-25T00:47:03.990Z,28.22
2023-04-25T00:48:03.962Z,27.50
2023-04-25T00:49:03.896Z,28.43
2023-04-25T00:50:03.936Z,25.30
2023-04-25T00:51:04.148Z,26.78
2023-04-25T00:52:03.874Z,25.99
2023-04-25T00:53:03.842Z,27.74
2023-04-25T00:54:03.865Z,25.33
2023-04-25T00:55:03.827Z,28.83
2023-04-25T00:56:04.136Z,26.50
2023-04-25T00:57:03.838Z,27.57
2023-04-25T00:58:03.854Z,25.31
2023-04-25T00:59:03.821Z,26.80
2023-04-25T01:00:03.823Z,27.29
2023-04-25T01:01:03.886Z,27.36
2023-04-25T01:02:03.853Z,26.74
2023-04-25T01:03:03.968Z,26.92
2023-04-25T01:04:03.864Z,25.25
2023-04-25T01:05:03.830Z,27.58
2023-04-25T01:06:04.159Z,28.11
2023-04-25T01:07:03.799Z,28.44
2023-04-25T01:08:03.747Z,26.58
2023-04-25T01:09:03.754Z,25.00
2023-04-25T01:10:03.761Z,27.82
2023-04-25T01:11:04.145Z,26.80
2023-04-25T01:12:03.764Z,27.11
2023-04-25T01:13:03.726Z,25.31
2023-04-25T01:14:03.730Z,25.77
2023-04-25T01:15:03.744Z,25.85
2023-04-25T01:16:04.185Z,27.25
2023-04-25T01:17:03.751Z,28.11
2023-04-25T01:18:03.753Z,25.00
2023-04-25T01:19:03.702Z,27.61
2023-04-25T01:20:03.720Z,25.95
2023-04-25T01:21:04.180Z,25.53
2023-04-25T01:22:03.718Z,25.53
2023-04-25T01:23:03.691Z,26.11
2023-04-25T01:24:03.685Z,27.61
2023-04-25T01:25:03.675Z,27.74
2023-04-25T01:26:04.205Z,26.95
2023-04-25T01:27:03.682Z,25.00
2023-04-25T01:28:03.679Z,28.02
2023-04-25T01:29:03.633Z,26.36
2023-04-25T01:30:03.645Z,28.26
2023-04-25T01:31:03.726Z,28.84
2023-04-25T01:32:03.674Z,28.35
2023-04-25T01:33:03.694Z,29.66
2023-04-25T01:34:03.602Z,26.72
2023-04-25T01:35:03.604Z,28.35
2023-04-25T01:36:03.691Z,27.98
2023-04-25T01:37:03.601Z,28.86
2023-04-25T01:38:03.609Z,28.99
2023-04-25T01:39:03.616Z,27.02
2023-04-25T01:40:03.578Z,27.18
2023-04-25T01:41:03.653Z,26.63
2023-04-25T01:42:03.587Z,27.54
2023-04-25T01:43:03.536Z,26.79
2023-04-25T01:44:03.568Z,26.92
2023-04-25T01:45:03.574Z,28.42
2023-04-25T01:46:03.722Z,26.01
2023-04-25T01:47:03.523Z,28.17
2023-04-25T01:48:03.575Z,27.66
2023-04-25T01:49:03.565Z,27.22
2023-04-25T01:50:03.538Z,26.70
2023-04-25T01:51:03.699Z,26.00
2023-04-25T01:52:03.504Z,28.46
2023-04-25T01:53:03.490Z,26.63
2023-04-25T01:54:03.490Z,27.89
2023-04-25T01:55:03.487Z,25.00
2023-04-25T01:56:03.698Z,26.60
2023-04-25T01:57:03.502Z,26.41
2023-04-25T01:58:03.446Z,26.94
2023-04-25T01:59:03.478Z,27.79
2023-04-25T02:00:03.471Z,27.84
2023-04-25T02:01:03.827Z,27.36
2023-04-25T02:02:03.444Z,27.29
2023-04-25T02:03:03.537Z,27.57
2023-04-25T02:04:03.661Z,26.46
2023-04-25T02:05:03.400Z,27.26
2023-04-25T02:06:03.673Z,27.61
2023-04-25T02:07:03.402Z,27.39
2023-04-25T02:08:03.432Z,25.68
2023-04-25T02:09:03.399Z,27.11
2023-04-25T02:10:03.374Z,26.47
2023-04-25T02:11:03.698Z,25.10
2023-04-25T02:12:03.355Z,26.56
2023-04-25T02:13:03.384Z,26.36
2023-04-25T02:14:03.358Z,25.00
2023-04-25T02:15:03.387Z,28.40
2023-04-25T02:16:03.742Z,26.22
2023-04-25T02:17:03.416Z,25.91
2023-04-25T02:18:03.418Z,29.46
2023-04-25T02:19:03.316Z,27.71
2023-04-25T02:20:03.346Z,25.09
2023-04-25T02:21:03.315Z,28.93
2023-04-25T02:22:03.328Z,27.63
2023-04-25T02:23:03.371Z,28.14
2023-04-25T02:24:03.301Z,27.68
2023-04-25T02:25:03.354Z,27.80
2023-04-25T02:26:03.309Z,25.88
2023-04-25T02:27:03.296Z,27.35
2023-04-25T02:28:03.279Z,26.21
2023-04-25T02:29:03.324Z,25.28
2023-04-25T02:30:03.272Z,29.07
2023-04-25T02:31:03.298Z,25.78
2023-04-25T02:32:03.713Z,25.85
2023-04-25T02:33:03.292Z,25.46
2023-04-25T02:34:03.246Z,26.30
2023-04-25T02:35:03.249Z,25.87
2023-04-25T02:36:03.218Z,27.53
2023-04-25T02:37:03.248Z,27.97
2023-04-25T02:38:03.232Z,27.26
2023-04-25T02:39:03.195Z,28.50
2023-04-25T02:40:03.226Z,27.32
2023-04-25T02:41:03.213Z,26.31
2023-04-25T02:42:03.677Z,26.79
2023-04-25T02:43:03.191Z,25.41
2023-04-25T02:44:03.190Z,27.45
2023-04-25T02:45:03.151Z,26.90
2023-04-25T02:46:03.178Z,27.55
2023-04-25T02:47:03.293Z,26.55
2023-04-25T02:48:03.239Z,26.57
2023-04-25T02:49:03.123Z,27.21
2023-04-25T02:50:03.147Z,28.40
2023-04-25T02:51:03.149Z,29.03
2023-04-25T02:52:03.216Z,28.92
2023-04-25T02:53:03.118Z,26.31
2023-04-25T02:54:03.108Z,26.75
2023-04-25T02:55:03.147Z,27.55
2023-04-25T02:56:03.091Z,25.24
2023-04-25T02:57:03.195Z,28.08
2023-04-25T02:58:03.091Z,25.84
2023-04-25T02:59:03.108Z,25.00
2023-04-25T03:00:03.099Z,26.83
2023-04-25T03:01:03.150Z,26.45
2023-04-25T03:02:03.191Z,26.04
2023-04-25T03:03:03.230Z,26.65
2023-04-25T03:04:03.130Z,27.82
2023-04-25T03:05:03.092Z,26.24
2023-04-25T03:06:03.093Z,27.50
2023-04-25T03:07:03.227Z,27.62
2023-04-25T03:08:03.072Z,26.88
2023-04-25T03:09:03.091Z,27.55
2023-04-25T03:10:03.090Z,27.96
2023-04-25T03:11:03.106Z,25.77
2023-04-25T03:12:03.217Z,27.84
2023-04-25T03:13:03.076Z,29.84
2023-04-25T03:14:03.091Z,27.69
2023-04-25T03:15:03.072Z,27.27
2023-04-25T03:16:03.112Z,28.68
2023-04-25T03:17:03.263Z,27.26
2023-04-25T03:18:03.106Z,25.24
2023-04-25T03:19:03.043Z,28.22
2023-04-25T03:20:03.053Z,28.31
2023-04-25T03:21:03.065Z,28.86
2023-04-25T03:22:03.227Z,26.59
2023-04-25T03:23:03.048Z,28.14
2023-04-25T03:24:03.026Z,28.78
2023-04-25T03:25:03.056Z,29.36
2023-04-25T03:26:03.064Z,27.76
2023-04-25T03:27:03.213Z,28.31
2023-04-25T03:28:03.043Z,27.10
2023-04-25T03:29:03.052Z,26.60
2023-04-25T03:30:03.052Z,27.42
2023-04-25T03:31:03.031Z,27.81
2023-04-25T03:32:03.272Z,27.48
2023-04-25T03:33:03.048Z,25.25
2023-04-25T03:34:03.057Z,26.18
2023-04-25T03:35:03.055Z,29.64
2023-04-25T03:36:03.011Z,27.27
2023-04-25T03:37:03.193Z,28.30
2023-04-25T03:38:03.017Z,28.67
2023-04-25T03:39:03.018Z,28.73
2023-04-25T03:40:02.982Z,25.17
2023-04-25T03:41:03.048Z,27.49
2023-04-25T03:42:03.223Z,27.02
2023-04-25T03:43:03.040Z,27.54
2023-04-25T03:44:03.054Z,25.00
2023-04-25T03:45:03.036Z,26.27
2023-04-25T03:46:03.061Z,26.64
2023-04-25T03:47:03.209Z,26.73
2023-04-25T03:48:03.113Z,28.36
2023-04-25T03:49:03.028Z,27.14
2023-04-25T03:50:03.027Z,28.05
2023-04-25T03:51:03.078Z,25.15
2023-04-25T03:52:03.221Z,27.31
2023-04-25T03:53:03.049Z,29.76
2023-04-25T03:54:03.046Z,26.74
2023-04-25T03:55:03.051Z,27.46
2023-04-25T03:56:03.075Z,28.51
2023-04-25T03:57:03.223Z,27.05
2023-04-25T03:58:03.046Z,26.64
2023-04-25T03:59:03.080Z,25.55
2023-04-25T04:00:03.045Z,28.43
2023-04-25T04:01:03.031Z,28.70
2023-04-25T04:02:03.253Z,29.91
2023-04-25T04:03:03.182Z,31.00
2023-04-25T04:04:03.218Z,28.69
2023-04-25T04:05:03.281Z,28.95
2023-04-25T04:06:03.067Z,26.15
2023-04-25T04:07:03.225Z,27.24
2023-04-25T04:08:03.080Z,29.35
2023-04-25T04:09:03.076Z,27.42
2023-04-25T04:10:03.070Z,27.39
2023-04-25T04:11:03.062Z,28.97
2023-04-25T04:12:03.227Z,28.47
2023-04-25T04:13:03.078Z,28.10
2023-04-25T04:14:03.134Z,28.23
2023-04-25T04:15:03.103Z,27.23
2023-04-25T04:16:03.095Z,25.00
2023-04-25T04:17:03.088Z,26.53
2023-04-25T04:18:03.095Z,26.94
2023-04-25T04:19:03.097Z,29.33
2023-04-25T04:20:03.080Z,26.96
2023-04-25T04:21:03.085Z,27.30
2023-04-25T04:22:03.110Z,26.96
2023-04-25T04:23:03.096Z,27.80
2023-04-25T04:24:03.110Z,27.64
2023-04-25T04:25:03.118Z,27.03
2023-04-25T04:26:03.130Z,27.21
2023-04-25T04:27:03.229Z,26.68
2023-04-25T04:28:03.099Z,25.30
2023-04-25T04:29:03.085Z,26.42
2023-04-25T04:30:03.129Z,25.60
2023-04-25T04:31:03.146Z,26.51
2023-04-25T04:32:03.074Z,28.79
2023-04-25T04:33:03.134Z,26.47
2023-04-25T04:34:03.111Z,27.36
2023-04-25T04:35:03.101Z,26.11
2023-04-25T04:36:03.115Z,27.79
2023-04-25T04:37:03.232Z,27.91
2023-04-25T04:38:03.115Z,28.03
2023-04-25T04:39:03.100Z,28.08
2023-04-25T04:40:03.141Z,28.32
2023-04-25T04:41:03.162Z,27.43
2023-04-25T04:42:03.130Z,27.30
2023-04-25T04:43:03.156Z,26.80
2023-04-25T04:44:03.148Z,27.86
2023-04-25T04:45:03.154Z,28.22
2023-04-25T04:46:03.139Z,27.39
2023-04-25T04:47:03.267Z,28.81
2023-04-25T04:48:03.226Z,27.01
2023-04-25T04:49:03.179Z,29.48
2023-04-25T04:50:03.189Z,26.87
2023-04-25T04:51:03.195Z,27.13
2023-04-25T04:52:03.215Z,27.13
2023-04-25T04:53:03.180Z,27.89
2023-04-25T04:54:03.169Z,28.71
2023-04-25T04:55:03.217Z,27.77
2023-04-25T04:56:03.185Z,27.12
2023-04-25T04:57:03.230Z,28.98
2023-04-25T04:58:03.240Z,27.03
2023-04-25T04:59:03.247Z,27.20
2023-04-25T05:00:03.239Z,28.09
2023-04-25T05:01:03.235Z,25.00
2023-04-25T05:02:03.222Z,27.77
2023-04-25T05:03:03.338Z,26.77
2023-04-25T05:04:03.312Z,28.23
2023-04-25T05:05:03.236Z,27.59
2023-04-25T05:06:03.244Z,26.61
2023-04-25T05:07:03.253Z,28.51
2023-04-25T05:08:03.238Z,27.39
2023-04-25T05:09:03.228Z,28.04
2023-04-25T05:10:03.254Z,27.79
2023-04-25T05:11:03.258Z,27.00
2023-04-25T05:12:03.288Z,26.78
2023-04-25T05:13:03.279Z,26.14
2023-04-25T05:14:03.240Z,29.16
2023-04-25T05:15:03.265Z,27.83
2023-04-25T05:16:03.268Z,27.41
2023-04-25T05:17:03.374Z,28.18
2023-04-25T05:18:03.332Z,27.99
2023-04-25T05:19:03.294Z,25.85
2023-04-25T05:20:03.354Z,25.07
2023-04-25T05:21:03.241Z,26.07
2023-04-25T05:22:03.267Z,25.89
2023-04-25T05:23:03.315Z,26.89
2023-04-25T05:24:03.273Z,26.65
2023-04-25T05:25:03.253Z,25.24
2023-04-25T05:26:03.277Z,26.16
2023-04-25T05:27:03.251Z,26.94
2023-04-25T05:28:03.284Z,26.32
2023-04-25T05:29:03.247Z,26.26
2023-04-25T05:30:03.261Z,27.83
2023-04-25T05:31:03.275Z,25.67
2023-04-25T05:32:03.344Z,27.66
2023-04-25T05:33:03.351Z,28.71
2023-04-25T05:34:03.261Z,27.68
2023-04-25T05:35:03.279Z,28.86
2023-04-25T05:36:03.281Z,25.37
2023-04-25T05:37:03.295Z,26.87
2023-04-25T05:38:03.284Z,27.70
2023-04-25T05:39:03.294Z,26.34
2023-04-25T05:40:03.309Z,27.61
2023-04-25T05:41:03.314Z,25.47
2023-04-25T05:42:03.278Z,27.78
2023-04-25T05:43:03.760Z,27.09
2023-04-25T05:44:03.356Z,28.42
2023-04-25T05:45:03.274Z,28.83
2023-04-25T05:46:03.331Z,28.98
2023-04-25T05:47:03.270Z,29.66
2023-04-25T05:48:03.815Z,27.17
2023-04-25T05:49:03.296Z,28.64
2023-04-25T05:50:03.256Z,26.19
2023-04-25T05:51:03.309Z,28.19
2023-04-25T05:52:03.269Z,28.90
2023-04-25T05:53:03.776Z,27.13
2023-04-25T05:54:03.315Z,28.76
2023-04-25T05:55:03.301Z,28.28
2023-04-25T05:56:03.317Z,27.73
2023-04-25T05:57:03.268Z,27.80
2023-04-25T05:58:03.311Z,26.84
2023-04-25T05:59:03.309Z,27.57
2023-04-25T06:00:03.298Z,29.01
2023-04-25T06:01:03.317Z,27.56
2023-04-25T06:02:03.302Z,25.11
2023-04-25T06:03:03.995Z,29.10
2023-04-25T06:04:03.717Z,32.93
2023-04-25T06:05:03.485Z,33.91
2023-04-25T06:06:03.462Z,28.00
2023-04-25T06:07:03.324Z,28.41
2023-04-25T06:08:03.366Z,32.66
2023-04-25T06:09:03.339Z,30.52
2023-04-25T06:10:03.354Z,29.55
2023-04-25T06:11:03.344Z,26.77
2023-04-25T06:12:03.353Z,25.82
2023-04-25T06:13:03.371Z,25.54
2023-04-25T06:14:03.391Z,30.14
2023-04-25T06:15:06.260Z,27.31
2023-04-25T06:16:04.426Z,27.47
2023-04-25T06:17:03.409Z,27.73
2023-04-25T06:18:03.450Z,22.09
2023-04-25T06:19:03.332Z,20.44
2023-04-25T06:20:04.622Z,26.25
2023-04-25T06:21:03.343Z,25.00
2023-04-25T06:22:03.359Z,26.48
2023-04-25T06:23:03.779Z,32.77
2023-04-25T06:24:03.333Z,36.91
2023-04-25T06:25:03.290Z,41.04
2023-04-25T06:26:03.307Z,37.21
2023-04-25T06:27:03.269Z,40.47
2023-04-25T06:28:03.779Z,50.47
2023-04-25T06:29:03.320Z,57.39
2023-04-25T06:30:03.287Z,56.59
2023-04-25T06:31:03.345Z,68.07
2023-04-25T06:32:03.258Z,62.04
2023-04-25T06:33:03.298Z,74.04
2023-04-25T06:34:03.246Z,83.06
2023-04-25T06:35:03.249Z,85.34
2023-04-25T06:36:03.257Z,87.79
2023-04-25T06:37:03.223Z,86.49
2023-04-25T06:38:03.254Z,86.75
2023-04-25T06:39:03.241Z,88.36
2023-04-25T06:40:03.213Z,94.59
2023-04-25T06:41:03.205Z,90.74
2023-04-25T06:42:03.228Z,79.92
2023-04-25T06:43:03.222Z,92.38
2023-04-25T06:44:03.172Z,97.82
2023-04-25T06:45:03.192Z,91.66
2023-04-25T06:46:03.168Z,91.73
2023-04-25T06:47:03.273Z,96.09
2023-04-25T06:48:03.189Z,90.43
2023-04-25T06:49:03.148Z,101.09
2023-04-25T06:50:03.164Z,105.22
2023-04-25T06:51:03.153Z,103.83
2023-04-25T06:52:03.150Z,86.28
2023-04-25T06:53:03.174Z,99.60
2023-04-25T06:54:03.137Z,87.66
2023-04-25T06:55:03.156Z,54.50
2023-04-25T06:56:03.108Z,51.00
2023-04-25T06:57:03.114Z,53.56
2023-04-25T06:58:03.287Z,56.06
2023-04-25T06:59:03.184Z,60.74
2023-04-25T07:00:03.216Z,73.59
2023-04-25T07:01:03.333Z,63.90
2023-04-25T07:02:03.333Z,71.30
2023-04-25T07:03:03.906Z,72.51
2023-04-25T07:04:03.634Z,81.86
2023-04-25T07:05:03.538Z,60.79
2023-04-25T07:06:03.566Z,65.22
2023-04-25T07:07:03.618Z,66.22
2023-04-25T07:08:03.640Z,73.73
2023-04-25T07:09:03.710Z,70.99
2023-04-25T07:10:03.795Z,78.75
2023-04-25T07:11:03.835Z,69.14
2023-04-25T07:12:03.886Z,71.97
2023-04-25T07:13:04.278Z,80.28
2023-04-25T07:14:03.981Z,75.47
2023-04-25T07:15:04.014Z,74.41
2023-04-25T07:16:04.087Z,71.12
2023-04-25T07:17:04.121Z,74.77
2023-04-25T07:18:04.221Z,78.43
2023-04-25T07:19:04.195Z,73.96
2023-04-25T07:20:04.195Z,79.89
2023-04-25T07:21:04.247Z,74.72
2023-04-25T07:22:04.306Z,72.15
2023-04-25T07:23:04.797Z,53.32
2023-04-25T07:24:04.429Z,67.36
2023-04-25T07:25:04.434Z,72.15
2023-04-25T07:26:04.459Z,73.29
2023-04-25T07:27:04.529Z,63.63
2023-04-25T07:28:04.543Z,68.11
2023-04-25T07:29:04.590Z,71.55
2023-04-25T07:30:04.615Z,72.76
2023-04-25T07:31:04.658Z,56.42
2023-04-25T07:32:04.796Z,65.73
2023-04-25T07:33:04.787Z,62.69
2023-04-25T07:34:04.789Z,63.58
2023-04-25T07:35:04.812Z,70.91
2023-04-25T07:36:04.879Z,69.37
2023-04-25T07:37:04.921Z,55.30
2023-04-25T07:38:05.314Z,55.63
2023-04-25T07:39:04.997Z,56.15
2023-04-25T07:40:05.027Z,58.79
2023-04-25T07:41:05.049Z,45.44
2023-04-25T07:42:05.154Z,45.68
2023-04-25T07:43:05.312Z,34.66
2023-04-25T07:44:05.254Z,44.99
2023-04-25T07:45:05.279Z,51.80
2023-04-25T07:46:05.382Z,43.00
2023-04-25T07:47:05.433Z,44.45
2023-04-25T07:48:05.901Z,42.52
2023-04-25T07:49:05.534Z,44.06
2023-04-25T07:50:05.623Z,42.53
2023-04-25T07:51:05.665Z,46.46
2023-04-25T07:52:05.715Z,34.24
2023-04-25T07:53:05.804Z,35.78
2023-04-25T07:54:05.851Z,35.67
2023-04-25T07:55:05.935Z,34.28
2023-04-25T07:56:06.004Z,39.09
2023-04-25T07:57:06.051Z,32.68
2023-04-25T07:58:06.294Z,42.65
2023-04-25T07:59:06.173Z,38.40
2023-04-25T08:00:06.225Z,34.37
2023-04-25T08:01:06.346Z,37.66
2023-04-25T08:02:06.404Z,34.58
2023-04-25T08:03:06.904Z,38.57
2023-04-25T08:04:06.639Z,36.64
2023-04-25T08:05:06.674Z,39.68
2023-04-25T08:06:08.113Z,37.29
2023-04-25T08:07:06.524Z,40.66
2023-04-25T08:08:06.547Z,34.60
2023-04-25T08:09:06.563Z,30.57
2023-04-25T08:10:06.611Z,37.13
2023-04-25T08:11:06.651Z,35.88
2023-04-25T08:12:06.626Z,38.41
2023-04-25T08:13:06.626Z,39.60
2023-04-25T08:14:06.681Z,39.86
2023-04-25T08:15:06.646Z,38.40
2023-04-25T08:16:06.705Z,35.52
2023-04-25T08:17:06.658Z,38.82
2023-04-25T08:18:06.759Z,35.36
2023-04-25T08:19:06.619Z,35.77
2023-04-25T08:20:06.621Z,38.35
2023-04-25T08:21:06.632Z,35.45
2023-04-25T08:22:06.624Z,36.45
2023-04-25T08:23:06.617Z,35.90
2023-04-25T08:24:06.620Z,34.40
2023-04-25T08:25:06.614Z,35.45
2023-04-25T08:26:06.610Z,36.71
2023-04-25T08:27:06.602Z,33.62
2023-04-25T08:28:06.627Z,34.32
2023-04-25T08:29:06.806Z,36.03
2023-04-25T08:30:06.591Z,31.99
2023-04-25T08:31:06.644Z,29.90
2023-04-25T08:32:06.615Z,35.02
2023-04-25T08:33:06.663Z,30.20
2023-04-25T08:34:06.819Z,31.30
2023-04-25T08:35:06.599Z,29.03
2023-04-25T08:36:06.598Z,33.42
2023-04-25T08:37:06.610Z,27.36
2023-04-25T08:38:06.601Z,26.30
2023-04-25T08:39:06.594Z,32.67
2023-04-25T08:40:06.598Z,32.02
2023-04-25T08:41:06.600Z,31.43
2023-04-25T08:42:06.595Z,30.00
2023-04-25T08:43:06.596Z,25.00
2023-04-25T08:44:06.855Z,28.84
2023-04-25T08:45:07.328Z,29.26
2023-04-25T08:46:06.603Z,29.21
2023-04-25T08:47:06.861Z,29.34
2023-04-25T08:48:06.636Z,33.35
2023-04-25T08:49:06.841Z,30.31
2023-04-25T08:50:06.654Z,29.15
2023-04-25T08:51:06.637Z,25.00
2023-04-25T08:52:06.607Z,28.97
2023-04-25T08:53:06.660Z,34.82
2023-04-25T08:54:12.877Z,33.18
2023-04-25T08:55:07.612Z,33.31
2023-04-25T08:56:06.611Z,33.30
2023-04-25T08:57:06.620Z,25.53
2023-04-25T08:58:06.627Z,33.90
2023-04-25T08:59:06.599Z,30.07
2023-04-25T09:00:06.603Z,30.68
2023-04-25T09:01:06.650Z,32.72
2023-04-25T09:02:06.603Z,29.59
2023-04-25T09:03:06.729Z,33.46
2023-04-25T09:04:06.965Z,31.12
2023-04-25T09:05:06.615Z,30.26
2023-04-25T09:06:06.666Z,27.12
2023-04-25T09:07:06.580Z,26.92
2023-04-25T09:08:06.633Z,29.12
2023-04-25T09:09:07.042Z,28.90
2023-04-25T09:10:06.638Z,25.21
2023-04-25T09:11:06.640Z,30.54
2023-04-25T09:12:06.632Z,30.19
2023-04-25T09:13:06.657Z,26.76
2023-04-25T09:14:06.855Z,26.17
2023-04-25T09:15:06.630Z,27.13
2023-04-25T09:16:06.682Z,26.55
2023-04-25T09:17:06.681Z,27.69
2023-04-25T09:18:06.706Z,28.73
2023-04-25T09:19:06.639Z,33.49
2023-04-25T09:20:06.604Z,26.81
2023-04-25T09:21:13.119Z,30.95
2023-04-25T09:22:07.672Z,30.97
2023-04-25T09:23:06.642Z,31.43
2023-04-25T09:24:06.629Z,30.09
2023-04-25T09:25:06.589Z,31.87
2023-04-25T09:26:06.599Z,29.67
2023-04-25T09:27:06.578Z,30.11
2023-04-25T09:28:06.597Z,32.63
2023-04-25T09:29:06.843Z,34.69
2023-04-25T09:30:06.565Z,35.86
2023-04-25T09:31:06.605Z,32.23
2023-04-25T09:32:06.595Z,27.80
2023-04-25T09:33:06.632Z,28.83
2023-04-25T09:34:06.828Z,29.11
2023-04-25T09:35:06.545Z,33.12
2023-04-25T09:36:06.537Z,29.15
2023-04-25T09:37:06.549Z,25.00
2023-04-25T09:38:06.558Z,25.44
2023-04-25T09:39:06.824Z,29.56
2023-04-25T09:40:06.519Z,27.54
2023-04-25T09:41:06.498Z,27.79
2023-04-25T09:42:06.512Z,28.94
2023-04-25T09:43:06.478Z,31.28
2023-04-25T09:44:06.857Z,27.71
2023-04-25T09:45:06.506Z,25.00
2023-04-25T09:46:06.512Z,28.64
2023-04-25T09:47:06.474Z,34.91
2023-04-25T09:48:06.492Z,35.46
2023-04-25T09:49:06.855Z,36.81
2023-04-25T09:50:06.471Z,34.18
2023-04-25T09:51:06.451Z,38.32
2023-04-25T09:52:07.370Z,36.52
2023-04-25T09:53:07.365Z,41.85
2023-04-25T09:54:06.886Z,39.46
2023-04-25T09:55:06.486Z,35.52
2023-04-25T09:56:06.446Z,28.72
2023-04-25T09:57:06.395Z,25.00
2023-04-25T09:58:06.419Z,38.94
2023-04-25T09:59:06.898Z,34.72
2023-04-25T10:00:06.411Z,37.04
2023-04-25T10:01:06.413Z,34.51
2023-04-25T10:02:06.391Z,26.09
2023-04-25T10:03:06.452Z,25.00
2023-04-25T10:04:06.473Z,25.00
2023-04-25T10:05:06.472Z,28.55
2023-04-25T10:06:06.453Z,29.05
2023-04-25T10:07:06.501Z,31.35
2023-04-25T10:08:06.586Z,34.82
2023-04-25T10:09:06.675Z,32.54
2023-04-25T10:10:06.711Z,26.28
2023-04-25T10:11:06.721Z,25.00
2023-04-25T10:12:06.799Z,27.26
2023-04-25T10:13:06.856Z,29.76
2023-04-25T10:14:06.915Z,30.16
2023-04-25T10:15:06.988Z,36.44
2023-04-25T10:16:07.038Z,32.26
2023-04-25T10:17:07.096Z,38.44
2023-04-25T10:18:07.184Z,39.55
2023-04-25T10:19:07.241Z,41.58
2023-04-25T10:20:07.299Z,43.79
2023-04-25T10:21:07.344Z,43.41
2023-04-25T10:22:07.383Z,42.74
2023-04-25T10:23:07.424Z,42.30
2023-04-25T10:24:07.572Z,43.93
2023-04-25T10:25:07.525Z,42.94
2023-04-25T10:26:07.574Z,43.85
2023-04-25T10:27:07.646Z,48.28
2023-04-25T10:28:07.694Z,42.24
2023-04-25T10:29:07.857Z,47.05
2023-04-25T10:30:07.816Z,52.73
2023-04-25T10:31:07.909Z,47.20
2023-04-25T10:32:08.082Z,47.69
2023-04-25T10:33:07.963Z,44.42
2023-04-25T10:34:08.364Z,44.06
2023-04-25T10:35:08.088Z,45.29
2023-04-25T10:36:08.156Z,46.44
2023-04-25T10:37:08.203Z,47.76
2023-04-25T10:38:08.241Z,46.85
2023-04-25T10:39:08.312Z,50.37
2023-04-25T10:40:08.393Z,49.36
2023-04-25T10:41:09.440Z,51.46
2023-04-25T10:42:08.445Z,59.16
2023-04-25T10:43:08.537Z,51.65
2023-04-25T10:44:08.555Z,59.26
2023-04-25T10:45:08.880Z,62.56
2023-04-25T10:46:08.698Z,63.37
2023-04-25T10:47:08.891Z,56.83
2023-04-25T10:48:08.832Z,55.34
2023-04-25T10:49:08.861Z,54.34
2023-04-25T10:50:09.352Z,60.89
2023-04-25T10:51:08.949Z,55.93
2023-04-25T10:52:09.030Z,50.16
2023-04-25T10:53:09.058Z,54.35
2023-04-25T10:54:09.114Z,49.15
2023-04-25T10:55:09.442Z,49.76
2023-04-25T10:56:10.506Z,57.24
2023-04-25T10:57:09.327Z,56.67
2023-04-25T10:58:09.381Z,59.13
2023-04-25T10:59:09.461Z,56.16
2023-04-25T11:00:09.846Z,56.33
2023-04-25T11:01:09.629Z,61.41
2023-04-25T11:02:09.768Z,57.46
2023-04-25T11:03:09.823Z,58.12
2023-04-25T11:04:09.994Z,62.21
2023-04-25T11:05:09.859Z,58.07
2023-04-25T11:06:09.867Z,57.72
2023-04-25T11:07:09.951Z,64.33
2023-04-25T11:08:10.016Z,61.06
2023-04-25T11:09:10.069Z,58.20
2023-04-25T11:10:10.395Z,59.86
2023-04-25T11:11:10.862Z,64.18
2023-04-25T11:12:10.232Z,60.40
2023-04-25T11:13:10.305Z,67.58
2023-04-25T11:14:10.322Z,62.83
2023-04-25T11:15:10.870Z,62.07
2023-04-25T11:17:10.572Z,68.88
2023-04-25T11:18:10.652Z,66.62
2023-04-25T11:19:10.625Z,61.56
2023-04-25T11:20:10.880Z,56.57
2023-04-25T11:21:10.732Z,68.40
2023-04-25T11:22:10.812Z,61.63
2023-04-25T11:23:10.856Z,59.25
2023-04-25T11:24:10.945Z,67.53
2023-04-25T11:25:11.378Z,74.35
2023-04-25T11:26:11.070Z,68.78
2023-04-25T11:27:11.100Z,69.40
2023-04-25T11:28:11.217Z,69.73
2023-04-25T11:29:11.845Z,71.38
2023-04-25T11:30:11.400Z,72.04
2023-04-25T11:31:11.312Z,66.89
2023-04-25T11:32:11.474Z,64.93
2023-04-25T11:33:11.449Z,70.63
2023-04-25T11:34:11.501Z,68.05
2023-04-25T11:35:11.861Z,64.35
2023-04-25T11:36:11.635Z,66.11
2023-04-25T11:37:11.694Z,59.69
2023-04-25T11:38:11.754Z,71.12
2023-04-25T11:39:11.840Z,67.85
2023-04-25T11:40:11.894Z,71.93
2023-04-25T11:41:11.942Z,68.56
2023-04-25T11:42:13.390Z,71.36
2023-04-25T11:43:12.027Z,70.02
2023-04-25T11:44:12.165Z,68.64
2023-04-25T11:45:12.148Z,68.39
2023-04-25T11:46:12.192Z,66.18
2023-04-25T11:47:12.247Z,65.78
2023-04-25T11:48:12.321Z,61.12
2023-04-25T11:49:12.346Z,61.44
2023-04-25T11:50:12.522Z,62.20
2023-04-25T11:51:12.479Z,63.38
2023-04-25T11:52:12.543Z,61.28
2023-04-25T11:53:12.607Z,64.32
2023-04-25T11:54:12.725Z,73.96
2023-04-25T11:55:12.899Z,69.89
2023-04-25T11:56:12.780Z,94.72
2023-04-25T11:57:12.788Z,154.42
2023-04-25T11:58:12.853Z,173.65
2023-04-25T11:59:13.211Z,205.35
2023-04-25T12:00:14.514Z,250.00
2023-04-25T12:01:12.951Z,250.00
2023-04-25T12:02:13.083Z,248.26
2023-04-25T12:03:13.067Z,229.26
2023-04-25T12:04:13.161Z,217.99
2023-04-25T12:05:30.205Z,209.28
2023-04-25T12:06:14.219Z,208.95
2023-04-25T12:07:12.946Z,200.70
2023-04-25T12:08:12.947Z,196.69
2023-04-25T12:09:12.914Z,188.30
2023-04-25T12:10:12.935Z,181.46
2023-04-25T12:11:12.897Z,176.91
2023-04-25T12:12:12.891Z,171.48
2023-04-25T12:13:12.894Z,163.30
2023-04-25T12:14:12.884Z,152.32
2023-04-25T12:15:12.957Z,153.11
2023-04-25T12:16:13.033Z,154.09
2023-04-25T12:17:13.019Z,153.93
2023-04-25T12:18:13.128Z,154.44
2023-04-25T12:19:13.150Z,151.77
2023-04-25T12:20:13.375Z,152.41
2023-04-25T12:21:13.267Z,153.77
2023-04-25T12:22:13.296Z,151.35
2023-04-25T12:23:13.365Z,150.86
2023-04-25T12:24:13.391Z,149.21
2023-04-25T12:25:13.919Z,146.55
2023-04-25T12:26:13.509Z,147.50
2023-04-25T12:27:13.551Z,143.64
2023-04-25T12:28:13.618Z,144.94
2023-04-25T12:29:13.642Z,147.23
2023-04-25T12:30:13.929Z,146.72
2023-04-25T12:31:13.761Z,140.50
2023-04-25T12:32:13.768Z,147.12
2023-04-25T12:33:13.839Z,144.99
2023-04-25T12:34:13.929Z,142.14
2023-04-25T12:35:13.892Z,141.78
2023-04-25T12:36:13.921Z,135.90
2023-04-25T12:37:13.955Z,135.17
2023-04-25T12:38:13.983Z,130.93
2023-04-25T12:39:15.074Z,127.87
2023-04-25T12:40:14.409Z,125.43
2023-04-25T12:41:14.122Z,127.32
2023-04-25T12:42:14.179Z,125.96
2023-04-25T12:43:14.180Z,123.90
2023-04-25T12:44:14.225Z,123.75
2023-04-25T12:45:14.398Z,117.93
2023-04-25T12:46:14.369Z,119.69
2023-04-25T12:47:14.406Z,117.32
2023-04-25T12:48:14.810Z,116.58
2023-04-25T12:49:18.566Z,113.48
2023-04-25T12:50:15.907Z,113.65
2023-04-25T12:51:14.455Z,113.33